Time;durP1;ratioP1;P1;durP2;ratioP2;P2;SDS_P1;SDS_P2;PMS_P1;PMS_P2;Temp;Humidity;BMP_temperature;BMP_pressure;BME280_temperature;BME280_humidity;BME280_pressure;Samples;Min_cycle;Max_cycle;Signal;HPM_P1;HPM_P2
2022/06/23 00:01:28;;;;;;;4.70;3.00;;;18.90;99.90;;;;;;5012365;28;21348;-76
2022/06/23 00:03:57;;;;;;;9.73;3.83;;;18.90;99.90;;;;;;5012769;28;20449;-76
2022/06/23 00:06:37;;;;;;;4.03;3.70;;;18.90;99.90;;;;;;5012184;28;20450;-76
2022/06/23 00:09:35;;;;;;;3.97;3.53;;;18.90;99.90;;;;;;5011022;28;20454;-76
2022/06/23 00:12:17;;;;;;;5.27;3.20;;;18.80;99.90;;;;;;5011210;28;20493;-77
2022/06/23 00:14:45;;;;;;;3.57;3.30;;;18.80;99.90;;;;;;5010878;28;20466;-76
2022/06/23 00:17:20;;;;;;;4.03;3.63;;;18.70;99.90;;;;;;5010399;28;20450;-76
2022/06/23 00:19:47;;;;;;;7.80;3.70;;;18.60;99.90;;;;;;5012759;28;20454;-76
2022/06/23 00:22:18;;;;;;;3.97;3.57;;;18.60;99.90;;;;;;5012144;28;21138;-76
2022/06/23 00:24:48;;;;;;;6.40;3.80;;;18.60;99.90;;;;;;5010544;28;20450;-77
2022/06/23 00:27:17;;;;;;;3.53;3.23;;;18.50;99.90;;;;;;5009512;28;20458;-76
2022/06/23 00:29:47;;;;;;;3.90;3.43;;;18.50;99.90;;;;;;5013040;28;20500;-77
2022/06/23 00:32:15;;;;;;;4.77;3.50;;;18.50;99.90;;;;;;5011200;28;21012;-76
2022/06/23 00:34:44;;;;;;;4.50;3.07;;;18.40;99.90;;;;;;5012969;28;20458;-77
2022/06/23 00:37:16;;;;;;;5.50;3.30;;;18.40;99.90;;;;;;5010624;28;20447;-76
2022/06/23 00:39:49;;;;;;;3.93;3.53;;;18.40;99.90;;;;;;5011249;28;20946;-76
2022/06/23 00:42:21;;;;;;;5.17;3.73;;;18.30;99.90;;;;;;5010765;28;20463;-76
2022/06/23 00:44:55;;;;;;;3.57;3.27;;;18.30;99.90;;;;;;5012023;28;20485;-76
2022/06/23 00:47:26;;;;;;;4.90;3.47;;;18.30;99.90;;;;;;5007322;28;20454;-76
2022/06/23 00:49:58;;;;;;;3.87;3.57;;;18.20;99.90;;;;;;5012745;28;20458;-76
2022/06/23 00:52:31;;;;;;;4.80;4.23;;;18.10;99.90;;;;;;5012407;28;20482;-76
2022/06/23 00:55:05;;;;;;;5.77;3.70;;;18.10;99.90;;;;;;5011622;28;20450;-76
2022/06/23 00:57:36;;;;;;;6.63;3.70;;;18.00;99.90;;;;;;5009540;28;20576;-76
2022/06/23 01:00:10;;;;;;;4.00;3.60;;;18.00;99.90;;;;;;5010214;28;20951;-76
2022/06/23 01:02:43;;;;;;;5.70;4.00;;;17.90;99.90;;;;;;5008002;28;20446;-77
2022/06/23 01:05:18;;;;;;;6.67;3.70;;;17.90;99.90;;;;;;5012058;28;20497;-77
2022/06/23 01:07:53;;;;;;;5.63;3.63;;;17.90;99.90;;;;;;5010590;28;20454;-76
2022/06/23 01:10:25;;;;;;;3.60;3.30;;;17.90;99.90;;;;;;5010069;28;20473;-77
2022/06/23 01:12:59;;;;;;;7.50;3.63;;;17.80;99.90;;;;;;5009091;28;20556;-76
2022/06/23 01:15:34;;;;;;;3.57;3.27;;;17.80;99.90;;;;;;5010003;28;20450;-76
2022/06/23 01:18:07;;;;;;;4.93;3.83;;;17.80;99.90;;;;;;5011905;28;20499;-76
2022/06/23 01:20:40;;;;;;;9.03;4.20;;;17.80;99.90;;;;;;5010446;28;20477;-76
2022/06/23 01:23:34;;;;;;;3.73;3.43;;;17.80;99.90;;;;;;5010564;28;20515;-76
2022/06/23 01:26:18;;;;;;;4.50;3.97;;;17.70;99.90;;;;;;5009529;28;20458;-77
2022/06/23 01:28:46;;;;;;;6.37;4.00;;;17.70;99.90;;;;;;5007048;28;20425;-76
2022/06/23 01:31:16;;;;;;;4.53;4.07;;;17.60;99.90;;;;;;5005344;28;21013;-77
2022/06/23 01:33:50;;;;;;;3.80;3.43;;;17.60;99.90;;;;;;5010809;28;20456;-76
2022/06/23 01:36:24;;;;;;;5.80;3.90;;;17.60;99.90;;;;;;5008798;28;20458;-77
2022/06/23 01:39:00;;;;;;;6.10;4.17;;;17.50;99.90;;;;;;5011247;28;20436;-76
2022/06/23 01:41:33;;;;;;;6.23;3.97;;;17.50;99.90;;;;;;5010710;28;20528;-76
2022/06/23 01:44:09;;;;;;;4.60;3.77;;;17.40;99.90;;;;;;5010687;28;20450;-76
2022/06/23 01:46:38;;;;;;;8.03;4.03;;;17.30;99.90;;;;;;5010928;28;21049;-76
2022/06/23 01:49:13;;;;;;;4.13;3.57;;;17.20;99.90;;;;;;5006987;28;20971;-76
2022/06/23 01:51:42;;;;;;;4.40;4.00;;;17.20;99.90;;;;;;5008704;28;20989;-77
2022/06/23 01:54:12;;;;;;;4.67;3.77;;;17.20;99.90;;;;;;5010486;28;20508;-76
2022/06/23 01:56:51;;;;;;;5.07;4.20;;;17.10;99.90;;;;;;5011928;28;20429;-77
2022/06/23 01:59:33;;;;;;;7.20;3.93;;;17.10;99.90;;;;;;5008726;28;20449;-77
2022/06/23 02:02:09;;;;;;;6.77;3.77;;;17.10;99.90;;;;;;5006065;28;20478;-77
2022/06/23 02:04:45;;;;;;;8.27;4.47;;;17.10;99.90;;;;;;5010616;28;20862;-76
2022/06/23 02:07:20;;;;;;;6.50;4.63;;;17.10;99.90;;;;;;5007977;28;20520;-76
2022/06/23 02:09:50;;;;;;;20.03;4.53;;;17.10;99.90;;;;;;5011581;28;20424;-77
2022/06/23 02:12:25;;;;;;;4.80;4.30;;;17.00;99.90;;;;;;5011065;28;20999;-77
2022/06/23 02:14:59;;;;;;;8.40;4.70;;;17.00;99.90;;;;;;5011560;28;20981;-76
2022/06/23 02:17:33;;;;;;;4.73;4.10;;;16.90;99.90;;;;;;5008865;28;20497;-76
2022/06/23 02:20:15;;;;;;;5.53;4.47;;;16.90;99.90;;;;;;5010074;28;20425;-77
2022/06/23 02:22:46;;;;;;;5.20;4.70;;;16.90;99.90;;;;;;5011773;28;20801;-77
2022/06/23 02:25:19;;;;;;;8.33;4.43;;;16.90;99.90;;;;;;5009890;28;20437;-77
2022/06/23 02:27:51;;;;;;;10.30;4.57;;;16.90;99.90;;;;;;5010951;28;20466;-76
2022/06/23 02:30:23;;;;;;;5.60;4.50;;;16.80;99.90;;;;;;5009486;28;21043;-76
2022/06/23 02:33:04;;;;;;;8.90;5.20;;;16.80;99.90;;;;;;5007795;28;20456;-77
2022/06/23 02:35:36;;;;;;;8.17;4.87;;;16.90;99.90;;;;;;5010483;28;20431;-76
2022/06/23 02:38:07;;;;;;;6.23;4.30;;;16.80;99.90;;;;;;5010428;28;20838;-77
2022/06/23 02:40:40;;;;;;;14.40;4.40;;;16.70;99.90;;;;;;5009481;28;22123;-77
2022/06/23 02:43:19;;;;;;;9.23;4.00;;;16.70;99.90;;;;;;5010588;28;20421;-77
2022/06/23 02:46:15;;;;;;;6.13;4.50;;;16.60;99.90;;;;;;5008102;28;20452;-76
2022/06/23 02:49:05;;;;;;;5.73;4.70;;;16.50;99.90;;;;;;5010931;28;20450;-77
2022/06/23 02:52:02;;;;;;;5.93;4.60;;;16.50;99.90;;;;;;5007209;28;20475;-77
2022/06/23 02:54:45;;;;;;;5.33;4.53;;;16.50;99.90;;;;;;4983623;28;20984;-76
2022/06/23 02:57:26;;;;;;;6.60;5.30;;;16.50;99.90;;;;;;5004979;28;20429;-76
2022/06/23 02:59:59;;;;;;;7.80;4.60;;;16.40;99.90;;;;;;5010272;28;20839;-76
2022/06/23 03:02:32;;;;;;;5.90;4.50;;;16.40;99.90;;;;;;5008316;28;20498;-77
2022/06/23 03:05:03;;;;;;;4.43;4.13;;;16.40;99.90;;;;;;5009837;28;20432;-77
2022/06/23 03:07:35;;;;;;;5.70;4.60;;;16.50;99.90;;;;;;5009627;28;20429;-77
2022/06/23 03:10:08;;;;;;;8.03;4.70;;;16.50;99.90;;;;;;5009609;28;20845;-77
2022/06/23 03:12:41;;;;;;;5.90;4.80;;;16.50;99.90;;;;;;5009915;28;20970;-77
2022/06/23 03:15:14;;;;;;;6.33;4.80;;;16.40;99.90;;;;;;5010393;28;20839;-76
2022/06/23 03:17:48;;;;;;;7.60;4.33;;;16.40;99.90;;;;;;5008844;28;20484;-76
2022/06/23 03:20:27;;;;;;;7.60;4.63;;;16.40;99.90;;;;;;5008375;28;20424;-77
2022/06/23 03:23:00;;;;;;;6.70;4.70;;;16.40;99.90;;;;;;5009900;28;20486;-76
2022/06/23 03:25:32;;;;;;;10.93;5.40;;;16.40;99.90;;;;;;5013172;28;20429;-76
2022/06/23 03:28:02;;;;;;;10.70;5.33;;;16.40;99.90;;;;;;5013469;28;20495;-77
2022/06/23 03:30:35;;;;;;;7.87;5.30;;;16.40;99.90;;;;;;5012899;28;20453;-79
2022/06/23 03:33:10;;;;;;;6.20;4.90;;;16.40;99.90;;;;;;5012661;28;20456;-76
2022/06/23 03:35:42;;;;;;;7.73;5.03;;;16.40;99.90;;;;;;5013153;28;20899;-77
2022/06/23 03:38:16;;;;;;;8.07;5.20;;;16.40;99.90;;;;;;5010444;28;20461;-75
2022/06/23 03:43:40;;;;;;;5.07;4.60;;;16.40;99.90;;;;;;5011863;28;20501;-74
2022/06/23 03:46:16;;;;;;;7.07;4.53;;;16.40;99.90;;;;;;5012998;28;20559;-74
2022/06/23 03:48:49;;;;;;;7.43;5.37;;;16.50;99.90;;;;;;5013093;28;20479;-74
2022/06/23 03:51:22;;;;;;;5.10;4.70;;;16.50;99.90;;;;;;5009388;28;20441;-74
2022/06/23 03:53:53;;;;;;;6.23;4.50;;;16.50;99.90;;;;;;5011931;28;20521;-74
2022/06/23 03:56:26;;;;;;;6.30;5.10;;;16.40;99.90;;;;;;5012514;28;21028;-74
2022/06/23 03:58:57;;;;;;;6.20;4.73;;;16.40;99.90;;;;;;5011203;28;20454;-74
2022/06/23 04:01:33;;;;;;;8.77;4.97;;;16.50;99.90;;;;;;5011937;28;20452;-74
2022/06/23 04:04:05;;;;;;;7.70;5.20;;;16.50;99.90;;;;;;5011829;28;20503;-75
2022/06/23 04:06:37;;;;;;;5.73;5.13;;;16.50;99.90;;;;;;5008143;28;20951;-75
2022/06/23 04:09:11;;;;;;;5.07;4.50;;;16.60;99.90;;;;;;5002559;28;20736;-75
2022/06/23 04:11:59;;;;;;;9.50;4.60;;;16.50;99.90;;;;;;5009949;28;20551;-75
2022/06/23 04:14:38;;;;;;;4.17;3.87;;;16.50;99.90;;;;;;5006532;28;20892;-75
2022/06/23 04:17:14;;;;;;;8.67;4.70;;;16.70;99.90;;;;;;5003847;28;21015;-76
2022/06/23 04:19:44;;;;;;;7.37;5.00;;;16.80;99.90;;;;;;5010906;28;20495;-75
2022/06/23 04:22:19;;;;;;;6.33;4.73;;;17.00;99.90;;;;;;5007090;28;20440;-75
2022/06/23 04:24:50;;;;;;;5.90;4.57;;;17.00;99.90;;;;;;5011427;28;20425;-76
2022/06/23 04:27:22;;;;;;;6.57;4.77;;;17.00;99.90;;;;;;5008914;28;20856;-77
2022/06/23 04:29:52;;;;;;;7.50;4.67;;;17.10;99.90;;;;;;5010451;28;20433;-77
2022/06/23 04:32:23;;;;;;;6.77;4.97;;;17.20;99.90;;;;;;5008781;28;20516;-77
2022/06/23 04:34:55;;;;;;;8.70;4.23;;;17.30;99.90;;;;;;5005774;28;20457;-77
2022/06/23 04:37:31;;;;;;;5.28;3.97;;;17.30;99.90;;;;;;5007039;28;21003;-77
2022/06/23 04:40:14;;;;;;;6.23;5.20;;;17.30;99.90;;;;;;5006574;28;20260;-77
2022/06/23 04:42:48;;;;;;;7.87;5.20;;;17.40;99.90;;;;;;5011651;28;20481;-77
2022/06/23 04:45:48;;;;;;;13.27;5.50;;;17.40;99.90;;;;;;5007155;28;20476;-76
2022/06/23 04:48:21;;;;;;;5.30;4.80;;;17.40;99.90;;;;;;4975591;28;20992;-77
2022/06/23 04:50:55;;;;;;;6.30;5.70;;;17.50;99.90;;;;;;5011614;28;20444;-77
2022/06/23 04:53:33;;;;;;;6.47;4.77;;;17.50;99.90;;;;;;5013238;28;20478;-77
2022/06/23 04:56:10;;;;;;;6.37;5.00;;;17.60;99.90;;;;;;5013628;28;20429;-77
2022/06/23 04:58:43;;;;;;;8.80;4.43;;;17.70;99.90;;;;;;5014963;28;20449;-78
2022/06/23 05:01:15;;;;;;;6.30;4.40;;;17.80;99.90;;;;;;5014642;28;20440;-77
2022/06/23 05:03:47;;;;;;;5.33;4.73;;;17.90;99.90;;;;;;5013731;28;20794;-77
2022/06/23 05:06:22;;;;;;;5.30;4.80;;;18.00;99.90;;;;;;5014823;28;20488;-78
2022/06/23 05:08:51;;;;;;;4.90;4.40;;;18.10;99.90;;;;;;5014566;28;20475;-77
2022/06/23 05:11:28;;;;;;;7.77;4.53;;;18.10;99.90;;;;;;5008964;28;21007;-77
2022/06/23 05:13:59;;;;;;;14.43;5.07;;;18.20;99.90;;;;;;4994619;28;20473;-77
2022/06/23 05:16:29;;;;;;;8.13;5.20;;;18.40;99.90;;;;;;4994712;28;20984;-76
2022/06/23 05:19:00;;;;;;;6.87;4.43;;;18.50;99.90;;;;;;4994091;28;20955;-77
2022/06/23 05:21:31;;;;;;;5.67;4.73;;;18.60;99.90;;;;;;4994009;28;20446;-77
2022/06/23 05:24:05;;;;;;;10.83;5.37;;;18.70;99.90;;;;;;4994300;28;20464;-77
2022/06/23 05:26:43;;;;;;;5.60;4.60;;;18.70;99.90;;;;;;4995078;28;20794;-77
2022/06/23 05:29:17;;;;;;;7.97;5.10;;;18.80;99.90;;;;;;4995279;28;20515;-77
2022/06/23 05:31:47;;;;;;;10.03;4.67;;;18.80;99.90;;;;;;4994646;28;20518;-77
2022/06/23 05:34:17;;;;;;;7.40;5.20;;;18.90;99.90;;;;;;4994561;28;21063;-77
2022/06/23 05:36:48;;;;;;;7.77;5.70;;;18.90;99.90;;;;;;4994704;28;20483;-77
2022/06/23 05:39:21;;;;;;;5.00;4.50;;;19.00;99.90;;;;;;4994327;28;20910;-77
2022/06/23 05:41:53;;;;;;;7.93;6.30;;;19.10;99.90;;;;;;5009225;28;21024;-77
2022/06/23 05:44:29;;;;;;;16.47;7.30;;;19.20;99.90;;;;;;5013439;28;20505;-77
2022/06/23 05:47:00;;;;;;;8.60;6.67;;;19.40;99.90;;;;;;5014025;28;20424;-77
2022/06/23 05:49:31;;;;;;;8.67;6.87;;;19.50;99.90;;;;;;5013729;28;20425;-77
2022/06/23 05:52:05;;;;;;;10.87;6.10;;;19.70;99.90;;;;;;5012949;28;20982;-77
2022/06/23 05:54:38;;;;;;;9.80;5.50;;;19.70;99.90;;;;;;5012746;28;20494;-77
2022/06/23 05:57:14;;;;;;;6.10;5.50;;;19.80;99.90;;;;;;5014360;28;20862;-77
2022/06/23 05:59:57;;;;;;;7.47;4.90;;;19.80;99.90;;;;;;5013939;28;20446;-77
2022/06/23 06:02:28;;;;;;;9.20;6.07;;;19.90;99.90;;;;;;5013872;28;20539;-77
2022/06/23 06:04:58;;;;;;;5.67;5.17;;;20.00;99.90;;;;;;5012368;28;20450;-78
2022/06/23 06:07:31;;;;;;;9.57;5.57;;;20.20;99.90;;;;;;5013343;28;20458;-77
2022/06/23 06:10:01;;;;;;;7.80;4.90;;;20.30;99.90;;;;;;5013902;28;20446;-77
2022/06/23 06:12:34;;;;;;;9.60;6.03;;;20.50;99.90;;;;;;4997631;28;20884;-77
2022/06/23 06:15:04;;;;;;;5.50;4.90;;;20.70;99.90;;;;;;4993636;28;20482;-77
2022/06/23 06:17:34;;;;;;;11.43;6.07;;;20.80;99.90;;;;;;4993821;28;20451;-77
2022/06/23 06:20:06;;;;;;;10.00;6.10;;;21.00;99.90;;;;;;4994170;28;20486;-77
2022/06/23 06:22:52;;;;;;;12.67;5.93;;;21.10;99.90;;;;;;4994254;28;20455;-78
2022/06/23 06:25:24;;;;;;;10.70;6.20;;;21.00;99.90;;;;;;4993859;28;20868;-77
2022/06/23 06:27:52;;;;;;;6.80;5.60;;;21.00;99.90;;;;;;4994278;28;20451;-77
2022/06/23 06:30:23;;;;;;;11.30;5.37;;;21.10;99.90;;;;;;4993843;28;20447;-77
2022/06/23 06:32:50;;;;;;;9.87;4.60;;;21.20;99.90;;;;;;4994400;28;20470;-77
2022/06/23 06:35:26;;;;;;;11.23;5.63;;;21.40;99.90;;;;;;4993852;28;20486;-77
2022/06/23 06:37:56;;;;;;;12.10;6.13;;;21.60;99.90;;;;;;4994347;28;20455;-77
2022/06/23 06:40:24;;;;;;;14.53;6.07;;;21.80;99.90;;;;;;4998194;28;20888;-77
2022/06/23 06:42:56;;;;;;;10.43;7.10;;;21.80;99.90;;;;;;5013421;28;20446;-77
2022/06/23 06:45:27;;;;;;;13.10;8.10;;;21.90;99.90;;;;;;5013967;28;20855;-77
2022/06/23 06:47:54;;;;;;;16.00;7.20;;;22.10;99.90;;;;;;5014135;28;20445;-77
2022/06/23 06:50:28;;;;;;;14.73;7.70;;;22.10;99.90;;;;;;5013535;28;20893;-77
2022/06/23 06:52:57;;;;;;;10.30;6.87;;;22.30;99.90;;;;;;5013803;28;20445;-77
2022/06/23 06:55:30;;;;;;;11.23;7.23;;;22.50;99.90;;;;;;5013016;28;20521;-77
2022/06/23 06:58:02;;;;;;;10.30;6.47;;;22.70;99.90;;;;;;5013462;28;20439;-78
2022/06/23 07:00:34;;;;;;;14.00;7.17;;;23.00;99.90;;;;;;5017253;28;20459;-78
2022/06/23 07:03:06;;;;;;;16.93;9.47;;;23.10;99.90;;;;;;5017437;28;20450;-78
2022/06/23 07:05:39;;;;;;;18.80;9.13;;;23.20;99.90;;;;;;5016885;28;20920;-77
2022/06/23 07:08:11;;;;;;;20.23;9.90;;;23.20;99.90;;;;;;5017027;28;20539;-78
2022/06/23 07:10:44;;;;;;;27.90;10.63;;;23.20;99.90;;;;;;5017136;28;20506;-78
2022/06/23 07:13:17;;;;;;;22.63;11.00;;;23.20;99.90;;;;;;4997671;28;20951;-78
2022/06/23 07:15:49;;;;;;;21.30;11.33;;;23.30;99.90;;;;;;4998436;28;20552;-78
2022/06/23 07:18:20;;;;;;;20.93;10.90;;;23.50;99.90;;;;;;4998190;28;20450;-78
2022/06/23 07:20:54;;;;;;;23.70;11.07;;;23.70;99.90;;;;;;4998086;28;20478;-78
2022/06/23 07:23:24;;;;;;;20.33;10.80;;;23.60;99.90;;;;;;4997064;28;20501;-78
2022/06/23 07:25:57;;;;;;;19.70;10.53;;;23.60;99.90;;;;;;4997723;28;20443;-78
2022/06/23 07:28:33;;;;;;;16.23;10.20;;;23.80;99.90;;;;;;4998169;28;20599;-78
2022/06/23 07:31:07;;;;;;;23.63;11.67;;;23.90;99.90;;;;;;4998593;28;20528;-78
2022/06/23 07:33:40;;;;;;;27.10;12.30;;;24.40;99.90;;;;;;4997949;28;20600;-78
2022/06/23 07:36:12;;;;;;;24.10;10.63;;;24.30;99.90;;;;;;4998081;28;20514;-78
2022/06/23 07:38:44;;;;;;;22.90;12.73;;;24.50;99.90;;;;;;4997752;28;20478;-78
2022/06/23 07:41:17;;;;;;;27.13;13.10;;;24.70;99.90;;;;;;5008083;28;20477;-77
2022/06/23 07:43:50;;;;;;;31.10;13.20;;;24.80;99.90;;;;;;5017473;28;20453;-78
2022/06/23 07:46:17;;;;;;;21.93;12.30;;;24.90;99.90;;;;;;5016939;28;20500;-78
2022/06/23 07:48:45;;;;;;;31.00;11.83;;;25.00;99.90;;;;;;5017755;28;20825;-78
2022/06/23 07:51:12;;;;;;;24.67;10.30;;;24.70;99.90;;;;;;5017128;28;20476;-78
2022/06/23 07:53:42;;;;;;;19.23;10.60;;;24.90;99.90;;;;;;5017142;28;20508;-78
2022/06/23 07:56:14;;;;;;;20.87;9.87;;;24.80;99.90;;;;;;5017221;28;20535;-78
2022/06/23 07:58:42;;;;;;;28.37;12.43;;;24.80;99.90;;;;;;5017417;28;20934;-78
2022/06/23 08:01:14;;;;;;;19.07;9.70;;;24.90;99.90;;;;;;5016746;28;20507;-77
2022/06/23 08:03:45;;;;;;;25.17;10.67;;;24.90;99.90;;;;;;5015985;28;20508;-77
2022/06/23 08:06:18;;;;;;;14.93;8.00;;;24.80;99.90;;;;;;5016466;28;20996;-77
2022/06/23 08:08:46;;;;;;;13.87;8.60;;;25.00;99.90;;;;;;5016468;28;20556;-77
2022/06/23 08:14:12;;;;;;;20.73;8.57;;;25.40;99.90;;;;;;4996064;28;20525;-77
2022/06/23 08:19:29;;;;;;;16.20;8.00;;;25.80;99.90;;;;;;4995648;28;20447;-77
2022/06/23 08:22:07;;;;;;;14.57;7.87;;;26.20;99.90;;;;;;4995614;28;20956;-77
2022/06/23 08:24:36;;;;;;;16.50;8.90;;;26.60;99.90;;;;;;4996393;28;20939;-77
2022/06/23 08:27:08;;;;;;;17.30;8.87;;;26.80;99.90;;;;;;4996508;28;20451;-77
2022/06/23 08:29:39;;;;;;;10.53;8.30;;;26.60;99.90;;;;;;4995617;28;20443;-77
2022/06/23 08:32:07;;;;;;;15.30;8.20;;;26.40;99.90;;;;;;4996214;28;20517;-77
2022/06/23 08:34:36;;;;;;;16.03;8.50;;;26.60;99.90;;;;;;4995775;28;20493;-77
2022/06/23 08:37:07;;;;;;;12.30;8.47;;;26.70;99.90;;;;;;4995591;28;20542;-76
2022/06/23 08:39:40;;;;;;;14.67;7.93;;;26.70;99.90;;;;;;4996179;28;20804;-77
2022/06/23 08:42:17;;;;;;;14.20;7.77;;;26.90;99.90;;;;;;5012989;28;20474;-77
2022/06/23 08:44:50;;;;;;;10.10;7.30;;;27.10;99.90;;;;;;5015860;28;20500;-77
2022/06/23 08:47:21;;;;;;;13.20;6.87;;;27.10;99.90;;;;;;5016887;28;20473;-77
2022/06/23 08:49:54;;;;;;;18.50;7.33;;;27.20;99.90;;;;;;5015656;28;20492;-77
2022/06/23 08:52:29;;;;;;;13.03;7.70;;;27.20;99.90;;;;;;5015347;28;20474;-77
2022/06/23 08:55:00;;;;;;;16.60;7.43;;;27.00;99.90;;;;;;5015397;28;20539;-77
2022/06/23 08:57:35;;;;;;;18.30;7.23;;;26.90;99.90;;;;;;5014875;28;20450;-77
2022/06/23 09:00:07;;;;;;;12.50;6.83;;;27.30;99.90;;;;;;5015278;28;20507;-77
2022/06/23 09:02:41;;;;;;;11.77;6.40;;;27.40;99.90;;;;;;5015175;28;20461;-76
2022/06/23 09:05:17;;;;;;;7.97;6.90;;;27.50;99.90;;;;;;5013208;28;20483;-76
2022/06/23 09:07:51;;;;;;;14.50;7.40;;;27.60;99.90;;;;;;5013498;28;20504;-76
2022/06/23 09:10:28;;;;;;;8.70;6.10;;;27.60;99.90;;;;;;5013653;28;20450;-76
2022/06/23 09:13:02;;;;;;;16.90;8.10;;;27.50;99.90;;;;;;4994381;28;20513;-76
2022/06/23 09:16:00;;;;;;;13.77;7.10;;;27.60;99.90;;;;;;4993549;28;20486;-76
2022/06/23 09:19:13;;;;;;;8.83;6.70;;;27.50;99.90;;;;;;4989859;28;20482;-76
2022/06/23 09:21:52;;;;;;;12.00;6.27;;;27.60;99.90;;;;;;4993276;28;20482;-76
2022/06/23 09:24:38;;;;;;;6.50;5.90;;;27.70;99.90;;;;;;4993236;28;20514;-76
2022/06/23 09:27:16;;;;;;;11.40;6.23;;;27.90;99.90;;;;;;4993437;28;20514;-76
2022/06/23 09:29:56;;;;;;;7.33;5.60;;;27.90;99.90;;;;;;4993505;28;20459;-76
2022/06/23 09:32:33;;;;;;;7.27;6.03;;;28.10;99.90;;;;;;4993265;28;20506;-75
2022/06/23 09:35:21;;;;;;;16.03;6.17;;;28.30;99.90;;;;;;4993475;28;20475;-76
2022/06/23 09:38:05;;;;;;;7.20;6.03;;;28.50;99.90;;;;;;4993861;28;20459;-76
2022/06/23 09:40:43;;;;;;;10.20;7.17;;;28.80;99.90;;;;;;4999092;28;20470;-76
2022/06/23 09:43:44;;;;;;;10.63;6.77;;;28.70;99.90;;;;;;5012211;28;20445;-76
2022/06/23 09:46:43;;;;;;;12.93;6.80;;;28.80;99.90;;;;;;5013024;28;20501;-76
2022/06/23 09:49:22;;;;;;;8.40;6.00;;;29.10;99.90;;;;;;5012868;28;20442;-76
2022/06/23 09:52:39;;;;;;;8.47;5.67;;;29.00;99.90;;;;;;5012628;28;21040;-76
2022/06/23 09:55:45;;;;;;;10.40;5.43;;;28.70;99.90;;;;;;4970874;28;20488;-76
2022/06/23 09:58:40;;;;;;;12.07;6.97;;;28.70;99.90;;;;;;4971125;28;20982;-76
2022/06/23 10:01:23;;;;;;;7.30;6.57;;;28.90;99.90;;;;;;5008144;28;20474;-76
2022/06/23 10:04:12;;;;;;;11.53;5.87;;;28.80;99.90;;;;;;5011996;28;20450;-76
2022/06/23 10:06:53;;;;;;;10.03;6.10;;;28.60;99.90;;;;;;5012601;28;20446;-76
2022/06/23 10:09:38;;;;;;;10.07;5.80;;;28.70;99.90;;;;;;5012902;28;20447;-76
2022/06/23 10:12:35;;;;;;;7.53;6.30;;;28.50;99.90;;;;;;4999956;28;20995;-76
2022/06/23 10:15:17;;;;;;;8.33;6.20;;;29.00;99.90;;;;;;4989282;28;20537;-76
2022/06/23 10:18:11;;;;;;;9.33;6.60;;;29.20;99.90;;;;;;4992554;28;20935;-76
2022/06/23 10:21:06;;;;;;;7.80;5.40;;;29.20;99.90;;;;;;4992701;28;20471;-76
2022/06/23 10:24:07;;;;;;;10.97;5.90;;;29.30;99.90;;;;;;4992702;28;20443;-76
2022/06/23 10:27:02;;;;;;;10.13;6.43;;;29.40;99.90;;;;;;4992295;28;20465;-76
2022/06/23 10:30:02;;;;;;;7.27;5.67;;;29.30;99.90;;;;;;4992560;28;20513;-76
2022/06/23 10:32:54;;;;;;;10.13;5.80;;;29.50;99.90;;;;;;4992231;28;20458;-76
2022/06/23 10:35:34;;;;;;;7.83;5.93;;;29.80;99.90;;;;;;4991732;28;21016;-76
2022/06/23 10:38:27;;;;;;;13.07;5.70;;;30.10;99.90;;;;;;4992568;28;20517;-77
2022/06/23 10:41:13;;;;;;;10.50;5.93;;;30.30;99.90;;;;;;5001435;28;20506;-76
2022/06/23 10:44:04;;;;;;;8.23;5.13;;;30.10;99.90;;;;;;5011881;28;20457;-76
2022/06/23 10:46:35;;;;;;;12.07;5.57;;;30.20;99.90;;;;;;5012369;28;20438;-76
2022/06/23 10:49:35;;;;;;;9.40;5.60;;;30.30;99.90;;;;;;5012089;28;20454;-76
2022/06/23 10:52:39;;;;;;;5.70;5.20;;;30.50;99.90;;;;;;5005143;28;20486;-76
2022/06/23 10:55:33;;;;;;;6.13;5.00;;;30.50;99.90;;;;;;5011509;28;20945;-76
2022/06/23 10:58:20;;;;;;;7.53;5.43;;;30.70;99.90;;;;;;5009621;28;20454;-76
2022/06/23 11:00:55;;;;;;;9.10;5.23;;;30.80;99.90;;;;;;5011933;28;20470;-76
2022/06/23 11:03:48;;;;;;;8.60;4.90;;;30.70;99.90;;;;;;5011334;28;20934;-76
2022/06/23 11:06:24;;;;;;;10.37;5.50;;;31.10;99.90;;;;;;5012075;28;20454;-76
2022/06/23 11:09:36;;;;;;;7.63;5.73;;;31.00;99.90;;;;;;5011888;28;20993;-77
2022/06/23 11:12:14;;;;;;;6.80;4.43;;;31.00;99.90;;;;;;4970640;28;20491;-76
2022/06/23 11:14:53;;;;;;;6.90;5.50;;;31.20;99.90;;;;;;4992187;28;20450;-76
2022/06/23 11:17:34;;;;;;;9.40;5.20;;;31.40;99.90;;;;;;4991965;28;20487;-76
2022/06/23 11:20:12;;;;;;;15.70;6.23;;;31.30;99.90;;;;;;4991972;28;20458;-76
2022/06/23 11:22:47;;;;;;;9.03;5.30;;;31.20;99.90;;;;;;4992033;28;20994;-76
2022/06/23 11:25:40;;;;;;;7.03;4.90;;;31.50;99.90;;;;;;4992103;28;20458;-76
2022/06/23 11:28:17;;;;;;;7.87;5.13;;;31.40;99.90;;;;;;4992018;28;20505;-76
2022/06/23 11:30:54;;;;;;;6.13;5.23;;;31.10;99.90;;;;;;4991891;28;20817;-76
2022/06/23 11:33:44;;;;;;;10.63;5.50;;;31.30;99.90;;;;;;4991804;28;20451;-76
2022/06/23 11:36:22;;;;;;;7.70;5.07;;;31.20;99.90;;;;;;4992053;28;20483;-76
2022/06/23 11:39:09;;;;;;;7.07;5.30;;;31.50;99.90;;;;;;4991896;28;20919;-76
2022/06/23 11:42:08;;;;;;;10.93;4.90;;;32.00;99.90;;;;;;5006037;28;20474;-77
2022/06/23 11:44:51;;;;;;;5.13;4.63;;;32.40;99.90;;;;;;5011994;28;20859;-77
2022/06/23 11:47:27;;;;;;;7.53;4.50;;;32.80;99.90;;;;;;5015061;28;20454;-76
2022/06/23 11:50:07;;;;;;;5.17;4.57;;;32.70;99.70;;;;;;5015371;28;20516;-76
2022/06/23 11:52:55;;;;;;;6.23;4.67;;;32.50;99.20;;;;;;5015312;28;20446;-76
2022/06/23 11:55:33;;;;;;;11.00;4.70;;;32.30;98.90;;;;;;5015071;28;20992;-76
2022/06/23 11:58:32;;;;;;;7.80;5.00;;;32.10;99.40;;;;;;5014681;28;20585;-76
2022/06/23 12:01:14;;;;;;;5.73;4.60;;;32.10;99.40;;;;;;5014946;28;20864;-77
2022/06/23 12:03:57;;;;;;;7.37;4.60;;;32.20;99.30;;;;;;5014609;28;20862;-77
2022/06/23 12:06:33;;;;;;;5.37;4.90;;;32.30;99.30;;;;;;5015152;28;20516;-76
2022/06/23 12:09:08;;;;;;;9.60;4.50;;;32.50;98.20;;;;;;5014966;28;20496;-76
2022/06/23 12:11:37;;;;;;;8.00;4.60;;;32.40;98.30;;;;;;5007024;28;20478;-76
2022/06/23 12:14:07;;;;;;;12.10;5.00;;;32.30;98.00;;;;;;4994695;28;20482;-77
2022/06/23 12:16:41;;;;;;;7.13;4.53;;;32.10;98.20;;;;;;4995420;28;20582;-77
2022/06/23 12:19:14;;;;;;;9.80;5.00;;;32.40;97.60;;;;;;4995105;28;20486;-76
2022/06/23 12:21:48;;;;;;;13.03;4.23;;;32.70;98.10;;;;;;4995081;28;20983;-76
2022/06/23 12:24:25;;;;;;;12.13;4.77;;;32.90;97.10;;;;;;4994566;28;20505;-76
2022/06/23 12:27:05;;;;;;;5.07;4.50;;;33.20;97.00;;;;;;4994916;28;20451;-76
2022/06/23 12:29:40;;;;;;;7.30;4.37;;;33.40;97.20;;;;;;4994609;28;20820;-76
2022/06/23 12:32:20;;;;;;;8.93;4.30;;;33.20;97.20;;;;;;4995040;28;20471;-76
2022/06/23 12:34:58;;;;;;;5.93;4.00;;;32.70;97.10;;;;;;4994493;28;20501;-77
2022/06/23 12:37:33;;;;;;;9.93;4.07;;;32.50;97.50;;;;;;4995229;28;20491;-76
2022/06/23 12:40:05;;;;;;;9.23;5.00;;;32.70;97.10;;;;;;4995951;28;20513;-77
2022/06/23 12:42:36;;;;;;;16.53;5.50;;;32.60;96.80;;;;;;5013830;28;20513;-76
2022/06/23 12:45:29;;;;;;;8.77;5.63;;;32.70;96.90;;;;;;5013955;28;20532;-77
2022/06/23 12:48:23;;;;;;;5.43;4.20;;;32.50;97.00;;;;;;4995290;28;20446;-76
2022/06/23 12:50:59;;;;;;;4.83;3.87;;;32.40;97.10;;;;;;5012163;28;20474;-77
2022/06/23 12:53:40;;;;;;;11.43;4.60;;;32.70;96.40;;;;;;5013618;28;21028;-76
2022/06/23 12:56:18;;;;;;;11.50;4.93;;;32.90;96.60;;;;;;5013811;28;20497;-76
2022/06/23 12:58:52;;;;;;;8.13;4.20;;;33.30;96.40;;;;;;5013745;28;20477;-76
2022/06/23 13:01:29;;;;;;;10.40;4.03;;;33.60;96.30;;;;;;5013656;28;20470;-76
2022/06/23 13:04:02;;;;;;;9.47;4.00;;;33.70;95.00;;;;;;5012827;28;20457;-76
2022/06/23 13:06:37;;;;;;;7.17;3.50;;;33.70;94.90;;;;;;5013897;28;20504;-76
2022/06/23 13:09:16;;;;;;;6.33;3.70;;;33.70;94.40;;;;;;5013536;28;20461;-76
2022/06/23 13:11:54;;;;;;;7.30;4.00;;;33.60;94.40;;;;;;5004639;28;20522;-77
2022/06/23 13:14:25;;;;;;;6.47;3.90;;;33.70;94.50;;;;;;4993657;28;20439;-76
2022/06/23 13:16:59;;;;;;;3.53;3.23;;;33.30;94.20;;;;;;4994253;28;20537;-77
2022/06/23 13:19:34;;;;;;;7.40;3.90;;;32.90;94.10;;;;;;4994190;28;20508;-76
2022/06/23 13:22:07;;;;;;;6.60;3.90;;;32.90;94.20;;;;;;4993775;28;20544;-76
2022/06/23 13:24:35;;;;;;;6.60;3.77;;;33.00;94.90;;;;;;4993709;28;20455;-76
2022/06/23 13:27:11;;;;;;;10.27;4.40;;;33.10;94.50;;;;;;4993546;28;20447;-76
2022/06/23 13:29:42;;;;;;;14.20;4.73;;;33.10;95.10;;;;;;4993381;28;20496;-76
2022/06/23 13:32:16;;;;;;;7.00;4.60;;;33.40;94.20;;;;;;4993400;28;20533;-76
2022/06/23 13:34:53;;;;;;;10.30;4.13;;;33.10;94.60;;;;;;4992973;28;20455;-76
2022/06/23 13:37:26;;;;;;;10.23;4.13;;;32.70;94.90;;;;;;4993314;28;21014;-76
2022/06/23 13:39:59;;;;;;;13.23;3.70;;;32.10;95.80;;;;;;4993978;28;20501;-76